Latest Weather Observations for Newcastle Nobbys

IDN60901

Issued at 8:51 am EST Wednesday 18 September 2019 (issued every 10 minutes, with the page automatically refreshed every 10 minutes)

About weather observations | Map of Sydney area stations | Latest observations for Sydney area | Other Formats
Station Details ID: 061055 Name: NEWCASTLE NOBBYS SIGNAL STATION AWS Lat: -32.92 Lon: 151.80 Height: 33.0 m
Data from the previous 72 hours. | See also: Recent months at Newcastle Nobbys
Date/Time
EST
Temp
°C
App
Temp
°C
Dew
Point
°C
Rel
Hum
%
Delta-T
°C
Wind Press
QNH
hPa
Press
MSL
hPa
Rain since
9am
mm
Dir  Spd
km/h
Gust
km/h
Spd
kts
Gust
kts
18/08:30am 16.5 12.0 16.5 100 0.0 SE 35 46 19 25 - - 26.8
18/08:00am 16.1 9.3 15.8 98 0.2 ESE 46 56 25 30 - - 23.0
18/07:30am 17.1 11.8 16.3 95 0.5 SE 39 46 21 25 - - 21.2
18/07:06am 17.4 11.3 16.1 92 0.8 SE 43 63 23 34 - - 19.0
18/07:00am 17.4 11.3 16.1 92 0.8 SE 43 50 23 27 - - 19.0
18/06:30am 17.1 10.1 16.3 95 0.5 SE 48 59 26 32 - - 19.0
18/06:00am 16.8 8.7 15.3 91 0.9 SE 52 61 28 33 - - 18.2
18/05:30am 17.0 9.6 15.2 89 1.0 SSE 48 57 26 31 - - 18.2
18/05:00am 17.1 10.1 15.3 89 1.0 SSE 46 57 25 31 - - 18.2
18/04:30am 17.1 9.7 15.3 89 1.0 SSE 48 57 26 31 - - 18.2
18/04:00am 17.0 9.0 14.6 86 1.4 SE 50 59 27 32 - - 18.2
18/03:30am 16.9 10.2 15.1 89 1.0 SSE 44 54 24 29 - - 18.0
18/03:00am 16.7 10.5 15.9 95 0.5 SSE 43 52 23 28 - - 18.0
18/02:30am 16.2 8.7 15.9 98 0.2 SSE 50 61 27 33 - - 17.8
18/02:00am 16.3 8.3 15.8 97 0.3 SSE 52 65 28 35 - - 16.4
18/01:30am 16.0 9.3 16.0 100 0.0 SSE 46 61 25 33 - - 15.2
18/01:03am 15.7 7.7 15.7 100 0.0 SSE 52 70 28 38 - - 11.4
18/01:00am 16.0 8.1 16.0 100 0.0 SSE 52 67 28 36 - - 11.2
18/12:30am 16.0 8.5 16.0 100 0.0 SSE 50 61 27 33 - - 10.2
18/12:00am 15.4 6.5 15.2 99 0.1 SSE 56 72 30 39 - - 9.4
 
Date/Time
EST
Temp
°C
App
Temp
°C
Dew
Point
°C
Rel
Hum
%
Delta-T
°C
Wind Press
QNH
hPa
Press
MSL
hPa
Rain since
9am
mm
Dir  Spd
km/h
Gust
km/h
Spd
kts
Gust
kts
17/11:30pm 15.5 5.4 14.7 95 0.5 SSE 61 76 33 41 - - 7.4
17/11:07pm 15.4 2.9 14.8 96 0.3 SSE 74 93 40 50 - - 6.6
17/11:00pm 15.4 2.4 14.6 95 0.5 SSE 76 93 41 50 - - 6.2
17/10:37pm 15.5 4.7 14.9 96 0.3 SSE 65 87 35 47 - - 5.6
17/10:30pm 15.4 4.6 14.8 96 0.3 SSE 65 80 35 43 - - 5.4
17/10:00pm 15.3 3.4 14.5 95 0.5 S 70 91 38 49 - - 4.4
17/09:47pm 14.6 4.5 13.5 93 0.6 S 59 80 32 43 - - 4.0
17/09:30pm 15.7 3.7 13.5 87 1.2 S 69 83 37 45 - - 3.6
17/09:02pm 16.1 5.1 13.0 82 1.7 S 63 82 34 44 - - 3.6
17/09:00pm 16.0 5.3 12.7 81 1.8 S 61 78 33 42 - - 3.6
17/08:30pm 15.8 4.9 13.5 86 1.3 S 63 78 34 42 - - 3.6
17/08:00pm 15.5 5.2 13.0 85 1.4 SSE 59 72 32 39 - - 3.6
17/07:30pm 15.7 5.6 13.4 86 1.3 SSE 59 80 32 43 - - 3.2
17/07:10pm 15.7 5.6 13.5 87 1.2 SSE 59 80 32 43 - - 3.0
17/07:00pm 15.6 5.0 13.1 85 1.4 SSE 61 74 33 40 - - 3.0
17/06:30pm 15.6 4.7 13.4 87 1.2 SSE 63 76 34 41 - - 3.0
17/06:00pm 15.5 3.9 13.5 88 1.1 S 67 80 36 43 - - 3.0
17/05:30pm 15.2 3.2 12.3 83 1.6 S 67 85 36 46 - - 3.0
17/05:20pm 15.6 4.9 14.0 90 0.9 S 63 82 34 44 - - 2.8
17/05:00pm 15.8 4.6 13.5 86 1.3 SSE 65 83 35 45 - - 2.8
17/04:38pm 15.8 5.8 13.8 88 1.1 SSE 59 83 32 45 - - 2.8
17/04:30pm 15.5 5.2 13.9 90 0.9 SSE 61 74 33 40 - - 2.8
17/04:12pm 15.3 4.3 14.2 93 0.6 SSE 65 85 35 46 - - 2.8
17/04:00pm 15.5 4.7 14.7 95 0.5 SSE 65 76 35 41 - - 2.8
17/03:32pm 15.3 4.8 14.7 96 0.3 S 63 83 34 45 - - 2.8
17/03:30pm 15.0 5.2 14.5 97 0.3 S 59 74 32 40 - - 2.8
17/03:00pm 14.9 6.2 14.7 99 0.1 S 54 69 29 37 - - 2.8
17/02:55pm 15.1 6.9 15.1 100 0.0 S 52 69 28 37 - - 2.8
17/02:39pm 14.9 11.5 14.7 99 0.1 SSW 26 48 14 26 - - 2.2
17/02:30pm 14.4 11.9 14.1 98 0.2 WSW 20 30 11 16 - - 1.0
17/02:00pm 13.6 10.9 13.0 96 0.3 WSW 19 28 10 15 - - 0.4
17/01:30pm 13.0 9.6 12.4 96 0.3 WSW 22 33 12 18 - - 0.4
17/01:00pm 12.9 10.0 12.3 96 0.3 WSW 19 30 10 16 - - 0.4
17/12:30pm 12.6 8.7 12.1 97 0.3 SW 24 35 13 19 - - 0.4
17/12:00pm 12.0 7.5 11.5 97 0.3 SW 26 41 14 22 - - 0.4
17/11:30am 11.6 8.2 11.3 98 0.2 SW 20 35 11 19 - - 0.4
17/11:00am 11.5 8.1 11.3 99 0.1 SW 20 32 11 17 - - 0.4
17/10:30am 11.3 7.2 11.3 100 0.0 SW 24 37 13 20 - - 0.4
17/10:00am 11.2 7.0 11.0 99 0.1 SW 24 35 13 19 - - 0.2
17/09:30am 11.2 5.3 11.0 99 0.1 SSW 33 44 18 24 - - 0.0
17/09:00am 11.4 6.9 11.4 100 0.0 SSW 26 46 14 25 - - 11.2
17/08:30am 12.8 6.3 12.8 100 0.0 SSW 39 52 21 28 - - 11.0
17/08:00am 13.0 6.9 13.0 100 0.0 SSW 37 54 20 29 - - 10.6
17/07:30am 13.3 7.3 13.3 100 0.0 SSW 37 48 20 26 - - 9.4
17/07:00am 13.4 6.7 13.4 100 0.0 S 41 48 22 26 - - 8.4
17/06:30am 13.4 7.8 13.4 100 0.0 SSW 35 46 19 25 - - 7.8
17/06:00am 13.0 7.3 13.0 100 0.0 SSW 35 48 19 26 - - 6.8
17/05:30am 13.4 6.7 13.4 100 0.0 S 41 50 22 27 - - 5.6
17/05:00am 13.8 7.2 13.8 100 0.0 SSW 41 54 22 29 - - 4.2
17/04:30am 13.4 7.0 13.2 99 0.1 SSW 39 54 21 29 - - 3.6
17/04:00am 14.0 9.5 13.7 98 0.2 SSW 30 39 16 21 - - 2.0
17/03:30am 14.2 8.3 13.7 97 0.3 S 37 46 20 25 - - 0.4
17/03:00am 14.6 9.1 13.6 94 0.6 S 35 43 19 23 - - 0.0
17/02:30am 14.9 8.8 14.1 95 0.5 S 39 46 21 25 - - 0.0
17/02:00am 15.6 10.5 13.8 89 1.0 SSE 33 41 18 22 - - 0.0
17/01:30am 16.6 11.1 12.6 77 2.2 SSE 33 39 18 21 - - 0.0
17/01:00am 16.6 11.2 12.8 78 2.1 SSE 33 39 18 21 - - 0.0
17/12:30am 16.6 10.9 12.9 79 2.1 SSE 35 43 19 23 - - 0.0
17/12:00am 16.4 10.3 12.9 80 1.9 S 37 43 20 23 - - 0.0
 
Date/Time
EST
Temp
°C
App
Temp
°C
Dew
Point
°C
Rel
Hum
%
Delta-T
°C
Wind Press
QNH
hPa
Press
MSL
hPa
Rain since
9am
mm
Dir  Spd
km/h
Gust
km/h
Spd
kts
Gust
kts
16/11:30pm 16.6 11.1 13.7 83 1.6 S 35 41 19 22 - - 0.0
16/11:00pm 16.9 11.7 13.4 80 2.0 S 33 39 18 21 - - 0.0
16/10:30pm 16.9 11.0 13.6 81 1.9 S 37 44 20 24 - - 0.0
16/10:00pm 16.7 10.1 13.6 82 1.7 S 41 48 22 26 - - 0.0
16/09:30pm 17.2 10.9 13.5 79 2.1 S 39 48 21 26 - - 0.0
16/09:00pm 17.1 11.4 14.2 83 1.7 S 37 44 20 24 - - 0.0
16/08:30pm 17.0 9.9 14.1 83 1.7 S 44 54 24 29 - - 0.0
16/08:00pm 17.1 9.3 14.2 83 1.7 S 48 56 26 30 - - 0.0
16/07:30pm 17.2 9.5 14.5 84 1.6 S 48 56 26 30 - - 0.0
16/07:00pm 17.4 10.9 15.2 87 1.3 S 43 54 23 29 - - 0.0
16/06:30pm 17.5 10.9 15.3 87 1.3 SSW 44 59 24 32 - - 0.0
16/06:05pm 17.6 11.1 15.6 88 1.2 SSW 44 65 24 35 - - 0.0
16/06:00pm 17.6 10.7 15.6 88 1.2 SSW 46 61 25 33 - - 0.0
16/05:31pm 17.9 11.1 15.9 88 1.2 SSW 46 65 25 35 - - 0.0
16/05:30pm 18.0 10.9 16.0 88 1.2 SSW 48 65 26 35 - - 0.0
16/05:08pm 20.4 17.7 13.4 64 4.0 S 20 70 11 38 - - 0.0
16/05:07pm 21.4 19.0 12.5 57 5.0 SE 17 46 9 25 - - 0.0
16/05:00pm 24.4 19.5 5.2 29 9.7 ENE 20 26 11 14 - - 0.0
16/04:30pm 22.7 20.9 9.5 43 7.1 ESE 9 17 5 9 - - 0.0
16/04:00pm 27.1 23.6 -2.7 14 13.3 NNE 6 7 3 4 - - 0.0
16/03:30pm 27.0 22.9 -0.1 17 12.6 N 11 17 6 9 - - 0.0
16/03:00pm 27.5 22.6 -0.5 16 13.0 NNW 15 28 8 15 - - 0.0
16/02:30pm 27.0 22.7 -4.8 12 13.6 NNW 9 15 5 8 - - 0.0
16/02:00pm 27.6 21.2 -6.7 10 14.3 NW 19 24 10 13 - - 0.0
16/01:30pm 27.3 18.7 -8.3 9 14.4 WNW 30 39 16 21 - - 0.0
16/01:00pm 27.5 18.9 -8.2 9 14.5 NW 30 43 16 23 - - 0.0
16/12:30pm 28.0 20.2 -7.8 9 14.7 NW 26 43 14 23 - - 0.0
16/12:00pm 28.3 19.4 -4.9 11 14.4 NNW 33 44 18 24 - - 0.0
16/11:30am 27.5 18.4 -3.3 13 13.6 NW 35 46 19 25 - - 0.0
16/11:00am 26.9 19.2 -2.8 14 13.2 NW 28 39 15 21 - - 0.0
16/10:30am 25.4 18.6 0.8 20 11.5 NW 26 33 14 18 - - 0.0
16/10:00am 23.0 16.8 1.9 25 9.9 NW 24 33 13 18 - - 0.0
16/09:30am 21.8 15.9 2.0 27 9.2 NW 22 28 12 15 - - 0.0
16/09:00am 20.2 15.0 3.4 33 8.0 NNW 20 24 11 13 - - 0.0
16/08:30am 18.6 12.8 2.4 34 7.4 NW 22 28 12 15 - - 0.0
16/08:00am 16.5 10.7 2.2 38 6.4 NW 22 26 12 14 - - 0.0
16/07:30am 16.0 10.4 3.4 43 5.8 NW 22 28 12 15 - - 0.0
16/07:00am 16.1 10.9 2.2 39 6.2 NNW 19 24 10 13 - - 0.0
16/06:30am 14.7 9.8 2.3 43 5.5 NW 17 20 9 11 - - 0.0
16/06:00am 13.4 8.9 4.0 53 4.3 NW 17 20 9 11 - - 0.0
16/05:30am 13.4 8.8 5.6 59 3.7 NW 19 22 10 12 - - 0.0
16/05:00am 13.4 8.8 5.8 60 3.6 NW 19 22 10 12 - - 0.0
16/04:30am 13.3 8.8 6.2 62 3.4 NW 19 22 10 12 - - 0.0
16/04:00am 13.5 10.0 7.3 66 3.0 NW 15 19 8 10 - - 0.0
16/03:30am 14.9 10.2 7.7 62 3.6 NW 22 26 12 14 - - 0.0
16/03:00am 15.0 11.6 9.1 68 3.0 NW 17 22 9 12 - - 0.0
16/02:30am 14.7 11.9 11.3 80 1.8 NW 17 19 9 10 - - 0.0
16/02:00am 14.6 11.4 11.4 81 1.7 NW 19 22 10 12 - - 0.0
16/01:30am 14.8 11.6 11.2 79 1.9 NW 19 24 10 13 - - 0.0
16/01:00am 14.8 12.0 11.2 79 1.9 NW 17 20 9 11 - - 0.0
16/12:30am 15.1 12.0 10.3 73 2.5 NW 17 20 9 11 - - 0.0
16/12:00am 15.9 12.8 10.4 70 2.9 NNW 17 20 9 11 - - 0.0
 
Date/Time
EST
Temp
°C
App
Temp
°C
Dew
Point
°C
Rel
Hum
%
Delta-T
°C
Wind Press
QNH
hPa
Press
MSL
hPa
Rain since
9am
mm
Dir  Spd
km/h
Gust
km/h
Spd
kts
Gust
kts
15/11:30pm 16.4 14.8 11.6 73 2.6 NNW 11 15 6 8 - - 0.0
15/11:00pm 16.4 14.7 10.0 66 3.4 NNW 9 13 5 7 - - 0.0
15/10:30pm 16.9 15.1 9.6 62 3.8 NNW 9 13 5 7 - - 0.0
15/10:00pm 17.3 16.1 10.2 63 3.8 N 7 11 4 6 - - 0.0
15/09:30pm 17.3 15.6 11.3 68 3.3 NNE 11 15 6 8 - - 0.0
15/09:00pm 17.4 15.5 11.9 70 3.0 NNE 13 15 7 8 - - 0.0
15/08:30pm 17.8 16.8 13.3 75 2.5 NNE 11 15 6 8 - - 0.0
15/08:00pm 17.9 18.0 14.0 78 2.2 NNE 6 9 3 5 - - 0.0
15/07:30pm 18.0 18.4 13.7 76 2.4 NE 4 7 2 4 - - 0.0
15/07:00pm 18.1 18.0 13.8 76 2.5 NNE 7 11 4 6 - - 0.0
15/06:30pm 18.3 17.9 14.0 76 2.5 NE 9 17 5 9 - - 0.0
15/06:00pm 18.3 17.0 14.8 80 2.0 NE 15 20 8 11 - - 0.0
15/05:30pm 18.4 16.2 14.5 78 2.3 ENE 19 26 10 14 - - 0.0
15/05:00pm 18.8 16.5 14.7 77 2.4 ENE 20 28 11 15 - - 0.0
15/04:30pm 18.8 16.0 14.3 75 2.6 ENE 22 30 12 16 - - 0.0
15/04:00pm 19.0 17.1 15.3 79 2.2 ENE 19 24 10 13 - - 0.0
15/03:30pm 19.0 16.1 15.1 78 2.3 ENE 24 30 13 16 - - 0.0
15/03:00pm 18.9 15.8 14.6 76 2.5 ENE 24 28 13 15 - - 0.0
15/02:30pm 19.3 16.9 14.3 73 2.9 E 20 26 11 14 - - 0.0
15/02:24pm 19.9 18.1 14.5 71 3.1 E 17 22 9 12 - - 0.0
15/02:00pm 24.9 21.1 5.7 29 9.8 N 15 17 8 9 - - 0.0
15/01:30pm 24.6 20.4 3.8 26 10.2 N 15 17 8 9 - - 0.0
15/01:00pm 23.9 20.1 7.5 35 8.6 N 17 20 9 11 - - 0.0
15/12:30pm 23.5 20.0 8.8 39 7.9 NNW 17 22 9 12 - - 0.0
15/12:00pm 23.1 20.0 8.8 40 7.6 NNW 15 22 8 12 - - 0.0
15/11:30am 22.2 18.6 9.7 45 6.8 NNW 19 26 10 14 - - 0.0
15/11:00am 21.1 17.5 9.7 48 6.1 NNW 19 24 10 13 - - 0.0
15/10:30am 19.8 16.2 9.7 52 5.4 NW 19 26 10 14 - - 0.0
15/10:00am 18.4 14.7 10.3 59 4.3 NW 20 28 11 15 - - 0.0
15/09:30am 17.4 13.1 10.8 65 3.5 NW 24 32 13 17 - - 0.0
15/09:00am 16.0 11.4 11.0 72 2.7 NW 26 35 14 19 - - 0.0

Latest Capital City Observations: Canberra | Sydney | Melbourne | Brisbane | Adelaide | Perth | Hobart | Darwin

Other formats

Comma delimited format used in spreadsheet applications
http://www.bom.gov.au/fwo/IDN60901/IDN60901.94774.axf

JavaScript Object Notation format (JSON) in row-major order
http://www.bom.gov.au/fwo/IDN60901/IDN60901.94774.json

Data quality

Most of these data are generated automatically and are frequently updated. Quality checks on data are not normally performed. It is possible for incorrect values to appear. Refer to information at About Latest Weather Observations and please check the disclaimer before using these data.